Time;durP1;ratioP1;P1;durP2;ratioP2;P2;SDS_P1;SDS_P2;PMS_P1;PMS_P2;Temp;Humidity;BMP_temperature;BMP_pressure;BME280_temperature;BME280_humidity;BME280_pressure;Samples;Min_cycle;Max_cycle;Signal;HPM_P1;HPM_P2
2023/08/20 00:00:52;;;;;;;3.53;3.42;;;;;;;;;;4937663;29;20205;-75
2023/08/20 00:03:19;;;;;;;3.65;3.45;;;;;;;;;;4937633;29;20575;-75
2023/08/20 00:05:46;;;;;;;3.50;3.30;;;;;;;;;;4937269;29;20711;-75
2023/08/20 00:08:15;;;;;;;3.75;3.58;;;;;;;;;;4937536;29;20235;-75
2023/08/20 00:10:42;;;;;;;3.30;3.20;;;;;;;;;;4937537;29;20208;-75
2023/08/20 00:13:09;;;;;;;3.70;3.50;;;;;;;;;;4937342;29;20691;-74
2023/08/20 00:15:36;;;;;;;3.47;3.38;;;;;;;;;;4937510;29;20208;-75
2023/08/20 00:18:04;;;;;;;3.65;3.45;;;;;;;;;;4937347;29;20231;-74
2023/08/20 00:20:31;;;;;;;3.42;3.33;;;;;;;;;;4937276;29;20204;-74
2023/08/20 00:22:58;;;;;;;3.67;3.47;;;;;;;;;;4937467;29;20223;-74
2023/08/20 00:25:27;;;;;;;3.58;3.38;;;;;;;;;;4936897;29;20583;-74
2023/08/20 00:27:54;;;;;;;3.72;3.53;;;;;;;;;;4936715;29;20716;-74
2023/08/20 00:30:21;;;;;;;3.38;3.28;;;;;;;;;;4937144;29;20215;-74
2023/08/20 00:32:49;;;;;;;3.63;3.42;;;;;;;;;;4936818;29;20207;-74
2023/08/20 00:35:16;;;;;;;4.22;3.92;;;;;;;;;;4937003;29;20248;-74
2023/08/20 00:37:44;;;;;;;3.40;3.30;;;;;;;;;;4936898;29;20224;-74
2023/08/20 00:40:12;;;;;;;3.67;3.45;;;;;;;;;;4936975;29;20235;-74
2023/08/20 00:42:40;;;;;;;3.60;3.50;;;;;;;;;;4936911;29;20219;-74
2023/08/20 00:45:07;;;;;;;4.10;3.90;;;;;;;;;;4936790;29;20209;-74
2023/08/20 00:47:34;;;;;;;3.97;3.78;;;;;;;;;;4936742;29;20220;-75
2023/08/20 00:50:02;;;;;;;3.78;3.60;;;;;;;;;;4936517;29;20213;-75
2023/08/20 00:52:29;;;;;;;4.10;3.90;;;;;;;;;;4936701;29;20200;-75
2023/08/20 00:54:57;;;;;;;3.33;3.20;;;;;;;;;;4936366;29;20707;-75
2023/08/20 00:57:24;;;;;;;3.10;3.00;;;;;;;;;;4936642;29;20227;-75
2023/08/20 00:59:52;;;;;;;3.38;3.17;;;;;;;;;;4936676;29;20549;-75
2023/08/20 01:02:20;;;;;;;3.42;3.33;;;;;;;;;;4936320;29;20219;-74
2023/08/20 01:04:47;;;;;;;3.92;3.50;;;;;;;;;;4936565;29;20238;-74
2023/08/20 01:07:17;;;;;;;3.67;3.50;;;;;;;;;;4936157;29;20708;-74
2023/08/20 01:09:48;;;;;;;4.32;4.03;;;;;;;;;;4937809;29;20544;-74
2023/08/20 01:12:15;;;;;;;3.90;3.70;;;;;;;;;;4936607;29;20189;-74
2023/08/20 01:14:42;;;;;;;4.20;3.90;;;;;;;;;;4936500;29;20204;-75
2023/08/20 01:17:10;;;;;;;3.90;3.70;;;;;;;;;;4936191;29;20561;-75
2023/08/20 01:19:38;;;;;;;3.72;3.53;;;;;;;;;;4936144;29;20576;-74
2023/08/20 01:22:16;;;;;;;4.07;3.88;;;;;;;;;;4936516;29;20200;-74
2023/08/20 01:24:50;;;;;;;3.55;3.45;;;;;;;;;;4936400;29;20212;-75
2023/08/20 01:27:25;;;;;;;3.85;3.55;;;;;;;;;;4965046;23;20231;-75
2023/08/20 01:29:54;;;;;;;4.22;4.03;;;;;;;;;;4955591;29;20187;-76
2023/08/20 01:32:21;;;;;;;4.00;3.80;;;;;;;;;;4955589;29;20208;-76
2023/08/20 01:34:49;;;;;;;3.10;3.00;;;;;;;;;;4955283;29;20207;-76
2023/08/20 01:37:16;;;;;;;3.85;3.72;;;;;;;;;;4950081;29;20231;-75
2023/08/20 01:39:43;;;;;;;3.90;3.70;;;;;;;;;;4936400;29;20285;-77
2023/08/20 01:42:10;;;;;;;4.20;4.00;;;;;;;;;;4936459;29;20208;-77
2023/08/20 01:44:37;;;;;;;3.90;3.72;;;;;;;;;;4936784;29;20227;-77
2023/08/20 01:47:05;;;;;;;3.95;3.75;;;;;;;;;;4936591;29;20267;-77
2023/08/20 01:49:33;;;;;;;4.30;4.00;;;;;;;;;;4936561;29;20208;-76
2023/08/20 01:52:00;;;;;;;4.25;4.05;;;;;;;;;;4936448;29;20299;-75
2023/08/20 01:54:28;;;;;;;3.65;3.55;;;;;;;;;;4936313;29;20208;-77
2023/08/20 01:56:55;;;;;;;3.92;3.72;;;;;;;;;;4936048;29;20235;-77
2023/08/20 01:59:24;;;;;;;4.10;3.80;;;;;;;;;;4936588;29;20240;-76
2023/08/20 02:01:51;;;;;;;3.70;3.53;;;;;;;;;;4943278;29;20234;-77
2023/08/20 02:04:19;;;;;;;3.85;3.75;;;;;;;;;;4945027;29;20239;-77
2023/08/20 02:06:46;;;;;;;4.07;3.88;;;;;;;;;;4937006;29;20208;-78
2023/08/20 02:09:13;;;;;;;3.75;3.65;;;17.70;99.90;;;;;;4937195;29;20204;-77
2023/08/20 02:11:40;;;;;;;3.13;3.03;;;17.80;99.90;;;;;;4936469;29;20575;-77
2023/08/20 02:14:06;;;;;;;3.90;3.60;;;17.80;99.90;;;;;;4937470;29;20211;-77
2023/08/20 02:16:33;;;;;;;4.95;3.42;;;17.70;99.90;;;;;;4939773;29;20204;-77
2023/08/20 02:19:01;;;;;;;3.70;3.58;;;17.70;99.90;;;;;;4940256;29;20208;-77
2023/08/20 02:21:29;;;;;;;3.85;3.65;;;17.70;99.90;;;;;;4939837;29;20236;-77
2023/08/20 02:23:56;;;;;;;4.22;4.03;;;17.70;99.90;;;;;;4939590;29;20231;-77
2023/08/20 02:26:23;;;;;;;4.13;3.83;;;17.70;99.90;;;;;;4939579;29;20204;-77
2023/08/20 02:28:50;;;;;;;4.00;3.88;;;17.60;99.90;;;;;;4939039;29;20236;-77
2023/08/20 02:31:16;;;;;;;3.75;3.55;;;17.60;99.90;;;;;;4939384;29;20207;-76
2023/08/20 02:33:43;;;;;;;3.80;3.60;;;17.60;99.90;;;;;;4939340;29;20200;-76
2023/08/20 02:36:10;;;;;;;3.47;3.35;;;17.60;99.90;;;;;;4939296;29;20213;-76
2023/08/20 02:38:38;;;;;;;4.25;4.05;;;17.60;99.90;;;;;;4939135;29;20275;-75
2023/08/20 02:41:05;;;;;;;3.92;3.72;;;17.60;99.90;;;;;;4938872;29;20212;-75
2023/08/20 02:43:31;;;;;;;4.00;3.80;;;17.70;99.90;;;;;;4938748;29;20223;-75
2023/08/20 02:45:58;;;;;;;4.13;3.92;;;17.70;99.90;;;;;;4938814;29;20715;-76
2023/08/20 02:48:26;;;;;;;3.70;3.60;;;17.70;99.90;;;;;;4938971;29;20235;-75
2023/08/20 02:50:53;;;;;;;4.10;3.90;;;17.70;99.90;;;;;;4938981;29;20299;-76
2023/08/20 02:53:20;;;;;;;3.60;3.50;;;17.70;99.90;;;;;;4938938;29;20208;-76
2023/08/20 02:55:49;;;;;;;3.42;3.33;;;17.70;99.90;;;;;;4938958;29;20208;-76
2023/08/20 02:58:16;;;;;;;4.47;4.28;;;17.70;99.90;;;;;;4938965;29;20260;-75
2023/08/20 03:00:44;;;;;;;4.18;3.97;;;17.70;99.90;;;;;;4938960;29;20212;-77
2023/08/20 03:03:11;;;;;;;3.70;3.60;;;17.70;99.90;;;;;;4938740;29;20205;-77
2023/08/20 03:05:38;;;;;;;4.03;3.83;;;17.80;99.90;;;;;;4938848;29;20208;-77
2023/08/20 03:08:05;;;;;;;3.97;3.78;;;17.80;99.90;;;;;;4938400;29;20224;-78
2023/08/20 03:10:33;;;;;;;4.45;4.15;;;17.80;99.90;;;;;;4938599;29;20215;-76
2023/08/20 03:13:01;;;;;;;3.83;3.63;;;17.80;99.90;;;;;;4938486;29;20212;-76
2023/08/20 03:15:28;;;;;;;4.00;3.80;;;17.90;99.90;;;;;;4938529;29;20200;-76
2023/08/20 03:17:55;;;;;;;4.30;4.10;;;17.80;99.90;;;;;;4938426;29;20239;-75
2023/08/20 03:20:22;;;;;;;3.75;3.58;;;17.80;99.90;;;;;;4938211;29;20667;-76
2023/08/20 03:22:49;;;;;;;3.85;3.60;;;17.80;99.90;;;;;;4938156;29;20710;-76
2023/08/20 03:25:15;;;;;;;4.25;4.05;;;17.70;99.90;;;;;;4938121;29;20345;-77
2023/08/20 03:27:42;;;;;;;4.00;3.80;;;17.70;99.90;;;;;;4938076;29;20236;-76
2023/08/20 03:30:11;;;;;;;4.10;3.90;;;17.70;99.90;;;;;;4938278;29;20201;-76
2023/08/20 03:32:38;;;;;;;3.35;3.25;;;17.60;99.90;;;;;;4938027;29;20694;-76
2023/08/20 03:35:06;;;;;;;3.75;3.55;;;17.60;99.90;;;;;;4938213;29;20200;-75
2023/08/20 03:37:32;;;;;;;3.97;3.78;;;17.50;99.90;;;;;;4938175;29;20224;-76
2023/08/20 03:39:59;;;;;;;4.03;3.83;;;17.50;99.90;;;;;;4938083;29;20295;-76
2023/08/20 03:42:26;;;;;;;3.90;3.80;;;17.40;99.90;;;;;;4937878;29;20207;-76
2023/08/20 03:44:53;;;;;;;4.10;3.90;;;17.40;99.90;;;;;;4937973;29;20232;-75
2023/08/20 03:47:21;;;;;;;4.25;4.05;;;17.40;99.90;;;;;;4937769;29;20599;-75
2023/08/20 03:49:48;;;;;;;4.28;4.07;;;17.40;99.90;;;;;;4938071;29;20208;-76
2023/08/20 03:52:15;;;;;;;4.20;3.90;;;17.30;99.90;;;;;;4938157;29;20236;-75
2023/08/20 03:54:42;;;;;;;4.38;4.18;;;17.30;99.90;;;;;;4938421;29;20200;-78
2023/08/20 03:57:09;;;;;;;4.75;4.53;;;17.30;99.90;;;;;;4937786;29;20228;-76
2023/08/20 03:59:35;;;;;;;3.80;3.67;;;17.20;99.90;;;;;;4937952;29;20208;-76
2023/08/20 04:02:02;;;;;;;4.40;4.13;;;17.20;99.90;;;;;;4937605;29;20208;-76
2023/08/20 04:04:31;;;;;;;4.78;4.47;;;17.20;99.90;;;;;;4937466;29;20319;-76
2023/08/20 04:06:58;;;;;;;4.40;4.10;;;17.20;99.90;;;;;;4937182;29;20319;-77
2023/08/20 04:09:24;;;;;;;4.50;4.28;;;17.10;99.90;;;;;;4937213;29;20208;-77
2023/08/20 04:11:51;;;;;;;4.63;4.32;;;17.10;99.90;;;;;;4937420;29;20200;-77
2023/08/20 04:14:18;;;;;;;4.00;3.80;;;17.10;99.90;;;;;;4937421;29;20553;-77
2023/08/20 04:16:45;;;;;;;4.40;4.15;;;17.00;99.90;;;;;;4937545;29;20213;-77
2023/08/20 04:19:12;;;;;;;4.22;4.03;;;17.00;99.90;;;;;;4937303;29;20213;-77
2023/08/20 04:21:40;;;;;;;4.30;4.10;;;17.00;99.90;;;;;;4937206;29;20221;-77
2023/08/20 04:24:07;;;;;;;4.22;4.03;;;17.00;99.90;;;;;;4941827;29;20565;-76
2023/08/20 04:26:34;;;;;;;3.80;3.63;;;17.00;99.90;;;;;;4939740;29;20205;-76
2023/08/20 04:29:01;;;;;;;4.38;4.18;;;17.00;99.90;;;;;;4936999;29;20219;-77
2023/08/20 04:31:28;;;;;;;4.13;3.83;;;17.00;99.90;;;;;;4937088;29;20208;-76
2023/08/20 04:33:54;;;;;;;4.43;4.22;;;17.00;99.90;;;;;;4937003;29;20212;-76
2023/08/20 04:36:21;;;;;;;4.13;3.92;;;17.00;99.90;;;;;;4936446;29;20209;-77
2023/08/20 04:38:49;;;;;;;4.53;4.32;;;17.10;99.90;;;;;;4936447;29;20221;-76
2023/08/20 04:41:16;;;;;;;4.70;4.47;;;17.10;99.90;;;;;;4937020;29;20212;-76
2023/08/20 04:43:42;;;;;;;3.95;3.75;;;17.10;99.90;;;;;;4936933;29;20212;-76
2023/08/20 04:46:09;;;;;;;4.25;4.05;;;17.20;99.90;;;;;;4936816;29;20243;-76
2023/08/20 04:48:36;;;;;;;4.40;4.20;;;17.20;99.90;;;;;;4936690;29;20235;-76
2023/08/20 04:51:03;;;;;;;4.07;3.88;;;17.30;99.90;;;;;;4936732;29;20227;-76
2023/08/20 04:53:30;;;;;;;4.55;4.35;;;17.40;99.90;;;;;;4936470;29;20567;-75
2023/08/20 04:55:59;;;;;;;4.13;3.92;;;17.50;99.90;;;;;;4936669;29;20204;-75
2023/08/20 04:58:25;;;;;;;4.10;3.90;;;17.50;99.90;;;;;;4936270;29;20713;-75
2023/08/20 05:00:52;;;;;;;3.90;3.80;;;17.60;99.90;;;;;;4936721;29;20211;-76
2023/08/20 05:03:19;;;;;;;4.30;4.10;;;17.70;99.90;;;;;;4936671;29;20211;-76
2023/08/20 05:05:49;;;;;;;3.92;3.72;;;17.80;99.90;;;;;;4936320;29;20220;-76
2023/08/20 05:08:16;;;;;;;4.32;4.13;;;18.10;99.90;;;;;;4936396;29;20251;-76
2023/08/20 05:10:43;;;;;;;5.03;4.72;;;18.30;99.90;;;;;;4936610;29;20552;-76
2023/08/20 05:13:11;;;;;;;4.50;4.30;;;18.70;99.90;;;;;;4936567;29;20211;-76
2023/08/20 05:15:38;;;;;;;5.32;5.03;;;19.20;99.90;;;;;;4936426;29;20205;-76
2023/08/20 05:18:05;;;;;;;5.32;5.03;;;19.80;99.90;;;;;;4936378;29;20237;-77
2023/08/20 05:20:32;;;;;;;4.50;4.30;;;20.40;99.90;;;;;;4936119;29;20205;-77
2023/08/20 05:22:58;;;;;;;4.78;4.57;;;20.80;99.90;;;;;;4936083;29;20200;-77
2023/08/20 05:25:25;;;;;;;4.95;4.65;;;21.20;99.90;;;;;;4936186;29;20235;-77
2023/08/20 05:27:52;;;;;;;4.35;4.15;;;21.60;99.90;;;;;;4935612;29;20738;-76
2023/08/20 05:30:20;;;;;;;4.15;3.95;;;22.10;99.90;;;;;;4936122;29;20212;-77
2023/08/20 05:32:47;;;;;;;4.50;4.15;;;22.50;99.90;;;;;;4936579;29;20215;-77
2023/08/20 05:35:13;;;;;;;3.42;3.33;;;23.00;99.90;;;;;;4936893;29;20204;-77
2023/08/20 05:37:40;;;;;;;4.05;3.85;;;23.30;99.90;;;;;;4938138;29;20232;-79
2023/08/20 05:40:08;;;;;;;3.40;3.30;;;;;;;;;;4937165;29;20204;-77
2023/08/20 05:42:35;;;;;;;3.70;3.60;;;;;;;;;;4942944;29;20210;-77
2023/08/20 05:45:02;;;;;;;4.10;3.83;;;;;;;;;;4948307;29;20228;-77
2023/08/20 05:47:31;;;;;;;3.58;3.40;;;25.00;99.90;;;;;;4941867;29;20224;-77
2023/08/20 05:49:57;;;;;;;3.85;3.65;;;25.60;99.90;;;;;;4940073;29;20208;-77
2023/08/20 05:52:24;;;;;;;3.80;3.58;;;;;;;;;;4939815;29;20200;-77
2023/08/20 05:54:51;;;;;;;3.50;3.40;;;;;;;;;;4939945;29;20203;-76
2023/08/20 05:57:19;;;;;;;4.20;4.00;;;26.40;99.90;;;;;;4939684;29;20224;-76
2023/08/20 05:59:46;;;;;;;3.78;3.50;;;26.90;99.90;;;;;;4939880;29;20207;-76
2023/08/20 06:02:16;;;;;;;3.90;3.70;;;27.10;99.90;;;;;;4939443;29;20680;-77
2023/08/20 06:04:44;;;;;;;3.70;3.50;;;27.20;99.90;;;;;;4939346;29;20231;-78
2023/08/20 06:07:11;;;;;;;3.60;3.40;;;27.30;99.90;;;;;;4939170;29;20730;-77
2023/08/20 06:09:38;;;;;;;3.80;3.70;;;27.90;99.90;;;;;;4939519;29;20231;-77
2023/08/20 06:12:05;;;;;;;3.72;3.55;;;28.70;99.90;;;;;;4939493;29;20207;-77
2023/08/20 06:14:32;;;;;;;4.28;3.88;;;29.70;99.90;;;;;;4939497;29;20208;-77
2023/08/20 06:16:58;;;;;;;4.55;4.15;;;30.60;99.90;;;;;;4939474;29;20220;-74
2023/08/20 06:19:25;;;;;;;3.95;3.75;;;31.50;99.90;;;;;;4939532;29;20208;-74
2023/08/20 06:21:53;;;;;;;3.92;3.72;;;32.40;99.90;;;;;;4939198;29;20204;-74
2023/08/20 06:24:20;;;;;;;3.90;3.67;;;33.10;99.90;;;;;;4939247;29;20586;-72
2023/08/20 06:26:47;;;;;;;3.78;3.58;;;33.00;99.90;;;;;;4939222;29;20221;-71
2023/08/20 06:29:14;;;;;;;3.72;3.42;;;32.80;99.90;;;;;;4939238;29;20189;-71
2023/08/20 06:31:41;;;;;;;3.63;3.42;;;33.60;99.90;;;;;;4938875;29;20579;-72
2023/08/20 06:34:08;;;;;;;3.78;3.53;;;;;;;;;;4939040;29;20691;-72
2023/08/20 06:36:35;;;;;;;3.60;3.40;;;;;;;;;;4939515;29;20200;-72
2023/08/20 06:39:03;;;;;;;3.28;3.17;;;;;;;;;;4939398;29;20208;-73
2023/08/20 06:41:30;;;;;;;3.63;3.42;;;32.30;99.90;;;;;;4938911;29;20691;-73
2023/08/20 06:43:56;;;;;;;3.45;3.25;;;31.80;99.90;;;;;;4939134;29;20208;-72
2023/08/20 06:46:23;;;;;;;4.30;4.00;;;31.20;99.90;;;;;;4938559;29;20227;-72
2023/08/20 06:48:50;;;;;;;3.38;3.28;;;30.60;99.90;;;;;;4938861;29;20231;-72
2023/08/20 06:51:19;;;;;;;4.53;4.22;;;30.30;99.90;;;;;;4938776;29;20204;-72
2023/08/20 06:53:46;;;;;;;3.72;3.53;;;30.00;99.90;;;;;;4938886;29;20215;-72
2023/08/20 06:56:14;;;;;;;3.53;3.38;;;29.90;99.90;;;;;;4938484;29;20569;-72
2023/08/20 06:58:44;;;;;;;3.65;3.45;;;;;;;;;;4938671;29;20220;-72
2023/08/20 07:01:12;;;;;;;3.50;3.30;;;;;;;;;;4938149;29;20216;-72
2023/08/20 07:03:40;;;;;;;3.30;3.20;;;;;;;;;;4938706;29;20295;-72
2023/08/20 07:06:09;;;;;;;3.83;3.53;;;;;;;;;;4938329;29;20714;-72
2023/08/20 07:08:36;;;;;;;3.20;3.10;;;;;;;;;;4938877;29;20284;-72
2023/08/20 07:11:03;;;;;;;3.03;2.92;;;;;;;;;;4938705;29;20200;-73
2023/08/20 07:13:31;;;;;;;3.10;3.00;;;;;;;;;;4938486;29;20204;-72
2023/08/20 07:15:58;;;;;;;2.80;2.63;;;;;;;;;;4938412;29;20201;-72
2023/08/20 07:18:25;;;;;;;3.30;3.10;;;;;;;;;;4938286;29;20224;-72
2023/08/20 07:20:52;;;;;;;2.80;2.70;;;;;;;;;;4938018;29;20695;-70
2023/08/20 07:23:20;;;;;;;5.47;3.10;;;;;;;;;;4938332;29;20235;-72
2023/08/20 07:25:48;;;;;;;2.58;2.47;;;;;;;;;;4938066;29;20803;-71
2023/08/20 07:28:20;;;;;;;4.35;3.17;;;;;;;;;;4970680;23;20593;-70
2023/08/20 07:30:49;;;;;;;2.40;2.30;;;;;;;;;;4956971;29;20647;-70
2023/08/20 07:33:16;;;;;;;2.90;2.72;;;;;;;;;;4957040;29;20791;-71
2023/08/20 07:35:43;;;;;;;3.03;2.92;;;;;;;;;;4957511;29;20207;-71
2023/08/20 07:38:10;;;;;;;2.33;2.22;;;;;;;;;;4948469;29;20239;-72
2023/08/20 07:40:37;;;;;;;2.28;2.28;;;;;;;;;;4937899;29;20212;-72
2023/08/20 07:43:04;;;;;;;2.65;2.53;;;;;;;;;;4938011;29;20208;-72
2023/08/20 07:45:32;;;;;;;2.60;2.50;;;;;;;;;;4937764;29;20224;-72
2023/08/20 07:48:00;;;;;;;2.40;2.30;;;;;;;;;;4937462;29;20711;-71
2023/08/20 07:50:27;;;;;;;2.60;2.50;;;;;;;;;;4937864;29;20591;-71
2023/08/20 07:52:54;;;;;;;2.40;2.30;;;;;;;;;;4937773;29;20200;-71
2023/08/20 07:55:21;;;;;;;2.15;2.10;;;;;;;;;;4937998;29;20203;-71
2023/08/20 07:57:49;;;;;;;2.75;2.65;;;;;;;;;;4937718;29;20228;-71
2023/08/20 08:00:17;;;;;;;2.55;2.45;;;;;;;;;;4937933;29;20200;-70
2023/08/20 08:02:44;;;;;;;2.67;2.47;;;;;;;;;;4937321;29;20291;-71
2023/08/20 08:05:14;;;;;;;2.60;2.50;;;;;;;;;;4937480;29;20227;-72
2023/08/20 08:07:41;;;;;;;2.72;2.63;;;;;;;;;;4937700;29;20224;-71
2023/08/20 08:10:08;;;;;;;2.60;2.50;;;;;;;;;;4937796;29;20581;-72
2023/08/20 08:12:35;;;;;;;2.72;2.63;;;;;;;;;;4936949;29;20299;-71
2023/08/20 08:15:03;;;;;;;2.83;2.63;;;;;;;;;;4937557;29;20214;-71
2023/08/20 08:17:30;;;;;;;3.00;2.78;;;;;;;;;;4937494;29;20315;-71
2023/08/20 08:19:57;;;;;;;2.88;2.78;;;;;;;;;;4937470;29;20200;-73
2023/08/20 08:22:26;;;;;;;2.70;2.70;;;;;;;;;;4937425;29;20204;-71
2023/08/20 08:24:53;;;;;;;2.60;2.50;;;;;;;;;;4937504;29;20208;-71
2023/08/20 08:27:20;;;;;;;2.67;2.58;;;;;;;;;;4937189;29;20247;-71
2023/08/20 08:29:47;;;;;;;3.15;2.63;;;;;;;;;;4937550;29;20192;-69
2023/08/20 08:32:14;;;;;;;2.75;2.65;;;;;;;;;;4936998;29;20739;-71
2023/08/20 08:34:41;;;;;;;2.75;2.60;;;;;;;;;;4936831;29;20215;-71
2023/08/20 08:37:08;;;;;;;3.60;2.83;;;;;;;;;;4936802;29;20211;-71
2023/08/20 08:39:36;;;;;;;2.92;2.67;;;;;;;;;;4937259;29;20207;-71
2023/08/20 08:42:05;;;;;;;2.88;2.75;;;;;;;;;;4937253;29;20212;-71
2023/08/20 08:44:33;;;;;;;3.00;2.88;;;;;;;;;;4937030;29;20204;-71
2023/08/20 08:47:00;;;;;;;2.90;2.72;;;;;;;;;;4936669;29;20767;-71
2023/08/20 08:49:29;;;;;;;3.85;3.60;;;;;;;;;;4936921;29;20232;-72
2023/08/20 08:51:58;;;;;;;3.33;3.13;;;;;;;;;;4937122;29;20255;-71
2023/08/20 08:54:25;;;;;;;3.35;3.15;;;;;;;;;;4937107;29;20204;-70
2023/08/20 08:56:53;;;;;;;3.95;3.50;;;;;;;;;;4937015;29;20238;-71
2023/08/20 08:59:21;;;;;;;3.70;3.50;;;;;;;;;;4937080;29;20229;-73
2023/08/20 09:01:48;;;;;;;3.63;3.47;;;;;;;;;;4936996;29;20212;-70
2023/08/20 09:04:15;;;;;;;3.53;3.42;;;;;;;;;;4936868;29;20200;-71
2023/08/20 09:06:48;;;;;;;3.40;3.22;;;;;;;;;;4936866;29;20234;-71
2023/08/20 09:09:16;;;;;;;4.32;4.03;;;;;;;;;;4936743;29;20224;-69
2023/08/20 09:11:43;;;;;;;4.75;4.30;;;;;;;;;;4936960;29;20219;-71
2023/08/20 09:14:21;;;;;;;4.55;4.18;;;;;;;;;;4936781;29;20208;-72
2023/08/20 09:16:49;;;;;;;4.88;4.43;;;;;;;;;;4936721;29;20195;-70
2023/08/20 09:19:16;;;;;;;4.72;4.38;;;;;;;;;;4936277;29;20224;-69
2023/08/20 09:21:48;;;;;;;4.68;4.22;;;;;;;;;;4936526;29;20214;-70
2023/08/20 09:24:15;;;;;;;5.18;4.72;;;;;;;;;;4936176;29;20283;-71
2023/08/20 09:26:46;;;;;;;4.78;4.35;;;;;;;;;;4936644;29;20224;-71
2023/08/20 09:29:14;;;;;;;5.32;4.90;;;;;;;;;;4936220;29;20243;-71
2023/08/20 09:31:43;;;;;;;4.80;4.40;;;;;;;;;;4936130;29;20576;-71
2023/08/20 09:34:14;;;;;;;7.15;4.00;;;;;;;;;;4936424;29;20267;-71
2023/08/20 09:36:41;;;;;;;4.97;4.57;;;;;;;;;;4936395;29;20217;-71
2023/08/20 09:39:08;;;;;;;4.90;4.60;;;;;;;;;;4936357;29;20239;-71
2023/08/20 09:41:38;;;;;;;4.72;4.32;;;;;;;;;;4936081;29;20575;-71
2023/08/20 09:44:06;;;;;;;4.70;4.30;;;;;;;;;;4936228;29;20215;-71
2023/08/20 09:46:35;;;;;;;6.50;4.85;;;;;;;;;;4936345;29;20216;-70
2023/08/20 09:49:03;;;;;;;4.82;4.53;;;;;;;;;;4936120;29;20224;-71
2023/08/20 09:51:34;;;;;;;4.22;3.72;;;;;;;;;;4936310;29;20203;-70
2023/08/20 09:54:04;;;;;;;3.92;3.63;;;;;;;;;;4936361;29;20188;-71
2023/08/20 09:56:32;;;;;;;3.67;3.40;;;;;;;;;;4936232;29;20211;-71
2023/08/20 09:58:59;;;;;;;3.20;3.00;;;;;;;;;;4936171;29;20228;-70
2023/08/20 10:01:27;;;;;;;3.30;3.10;;;;;;;;;;4936233;29;20227;-71
2023/08/20 10:03:55;;;;;;;5.47;3.97;;;;;;;;;;4936233;29;20204;-72
2023/08/20 10:06:22;;;;;;;5.25;4.50;;;;;;;;;;4936377;29;20227;-72
2023/08/20 10:08:50;;;;;;;4.15;3.90;;;;;;;;;;4936110;29;20731;-72
2023/08/20 10:11:17;;;;;;;4.20;4.00;;;;;;;;;;4936144;29;20208;-71
2023/08/20 10:13:44;;;;;;;4.57;3.60;;;;;;;;;;4935731;29;20211;-71
2023/08/20 10:16:13;;;;;;;6.55;3.33;;;;;;;;;;4935847;29;20205;-71
2023/08/20 10:18:41;;;;;;;3.85;3.55;;;;;;;;;;4936531;29;20734;-71
2023/08/20 10:21:10;;;;;;;3.47;3.28;;;;;;;;;;4936001;29;20204;-71
2023/08/20 10:23:42;;;;;;;4.30;3.53;;;;;;;;;;4935600;29;20208;-71
2023/08/20 10:26:10;;;;;;;4.07;3.78;;;;;;;;;;4935563;29;20268;-71
2023/08/20 10:28:37;;;;;;;4.10;3.80;;;;;;;;;;4935632;29;20264;-71
2023/08/20 10:31:06;;;;;;;3.60;3.30;;;;;;;;;;4935818;29;20205;-72
2023/08/20 10:33:33;;;;;;;4.07;3.80;;;;;;;;;;4935551;29;20671;-72
2023/08/20 10:36:08;;;;;;;4.88;3.72;;;;;;;;;;4938031;29;20561;-72
2023/08/20 10:38:38;;;;;;;4.28;4.00;;;;;;;;;;4939020;29;20231;-72
2023/08/20 10:41:07;;;;;;;3.97;3.78;;;;;;;;;;4939377;29;20283;-71
2023/08/20 10:43:35;;;;;;;3.45;3.35;;;;;;;;;;4939330;29;20718;-71
2023/08/20 10:46:09;;;;;;;3.45;3.15;;;;;;;;;;4939057;29;20217;-71
2023/08/20 10:48:37;;;;;;;4.22;3.83;;;;;;;;;;4938951;29;20220;-71
2023/08/20 10:51:08;;;;;;;11.90;3.65;;;;;;;;;;4939042;29;20235;-71
2023/08/20 10:53:35;;;;;;;4.50;3.53;;;;;;;;;;4939008;29;20211;-71
2023/08/20 10:56:10;;;;;;;4.80;4.10;;;;;;;;;;4938947;29;20612;-71
2023/08/20 10:58:37;;;;;;;4.07;3.78;;;;;;;;;;4938880;29;20564;-72
2023/08/20 11:01:21;;;;;;;4.28;3.97;;;;;;;;;;4939221;29;20295;-72
2023/08/20 11:03:49;;;;;;;3.92;3.72;;;;;;;;;;4939126;29;20208;-75
2023/08/20 11:06:16;;;;;;;4.13;3.75;;;;;;;;;;4938965;29;20351;-71
2023/08/20 11:08:44;;;;;;;5.32;4.15;;;;;;;;;;4938865;29;20785;-72
2023/08/20 11:11:13;;;;;;;3.50;3.40;;;;;;;;;;4939053;29;20200;-70
2023/08/20 11:13:40;;;;;;;4.10;3.80;;;;;;;;;;4939034;29;20599;-71
2023/08/20 11:16:08;;;;;;;4.00;3.80;;;;;;;;;;4938882;29;20208;-71
2023/08/20 11:18:35;;;;;;;3.90;3.70;;;;;;;;;;4938409;29;20710;-71
2023/08/20 11:21:03;;;;;;;3.63;3.42;;;;;;;;;;4938691;29;20215;-71
2023/08/20 11:23:30;;;;;;;3.80;3.60;;;;;;;;;;4938651;29;20212;-71
2023/08/20 11:25:58;;;;;;;3.50;3.30;;;;;;;;;;4938232;29;20212;-71
2023/08/20 11:28:28;;;;;;;4.03;3.83;;;;;;;;;;4938552;29;20228;-70
2023/08/20 11:30:55;;;;;;;3.17;3.08;;;;;;;;;;4939351;29;20301;-71
2023/08/20 11:33:23;;;;;;;3.50;3.22;;;;;;;;;;4939346;29;20672;-70
2023/08/20 11:35:51;;;;;;;3.80;3.50;;;;;;;;;;4938524;29;20212;-70
2023/08/20 11:38:18;;;;;;;2.95;2.85;;;;;;;;;;4938370;29;20311;-71
2023/08/20 11:40:45;;;;;;;2.90;2.80;;;;;;;;;;4938359;29;20208;-71
2023/08/20 11:43:12;;;;;;;3.10;2.95;;;;;;;;;;4938423;29;20565;-71
2023/08/20 11:45:47;;;;;;;2.90;2.80;;;;;;;;;;4938124;29;20263;-72
2023/08/20 11:48:15;;;;;;;3.45;3.20;;;;;;;;;;4938702;29;20234;-71
2023/08/20 11:50:42;;;;;;;2.90;2.80;;;;;;;;;;4938274;29;20227;-71
2023/08/20 11:53:10;;;;;;;3.20;3.10;;;;;;;;;;4937907;29;20244;-71
2023/08/20 11:55:39;;;;;;;2.78;2.67;;;;;;;;;;4938205;29;20208;-71
2023/08/20 11:58:06;;;;;;;3.72;3.05;;;;;;;;;;4938653;29;20221;-71
2023/08/20 12:00:34;;;;;;;3.60;3.40;;;;;;;;;;4939256;29;20200;-72
2023/08/20 12:03:03;;;;;;;3.75;3.55;;;;;;;;;;4938952;29;20208;-71
2023/08/20 12:05:30;;;;;;;3.30;3.10;;;;;;;;;;4939009;29;20211;-71
2023/08/20 12:07:58;;;;;;;4.10;3.70;;;;;;;;;;4938784;29;20239;-71
2023/08/20 12:10:26;;;;;;;3.60;3.40;;;;;;;;;;4937995;29;20212;-72
2023/08/20 12:12:53;;;;;;;3.80;3.60;;;;;;;;;;4937694;29;20204;-71
2023/08/20 12:15:20;;;;;;;3.20;3.00;;;;;;;;;;4937615;29;20286;-72
2023/08/20 12:17:56;;;;;;;7.38;3.67;;;;;;;;;;4937708;29;20228;-71
2023/08/20 12:20:25;;;;;;;4.40;4.00;;;;;;;;;;4937684;29;20200;-71
2023/08/20 12:22:52;;;;;;;5.70;4.32;;;;;;;;;;4937287;29;20668;-71
2023/08/20 12:25:19;;;;;;;3.65;3.45;;;;;;;;;;4937453;29;20204;-71
2023/08/20 12:27:46;;;;;;;4.07;3.67;;;;;;;;;;4937122;29;20243;-71
2023/08/20 12:30:13;;;;;;;3.80;3.50;;;;;;;;;;4938127;29;20188;-71
2023/08/20 12:32:40;;;;;;;4.53;4.13;;;;;;;;;;4937685;29;20204;-71
2023/08/20 12:35:08;;;;;;;4.28;3.78;;;;;;;;;;4937682;29;20234;-71
2023/08/20 12:37:36;;;;;;;4.38;4.07;;;;;;;;;;4938034;29;20216;-71
2023/08/20 12:40:07;;;;;;;3.97;3.78;;;;;;;;;;4938530;29;20200;-71
2023/08/20 12:42:34;;;;;;;3.80;3.60;;;;;;;;;;4936982;29;20233;-70
2023/08/20 12:45:02;;;;;;;3.72;3.47;;;;;;;;;;4937036;29;20215;-71
2023/08/20 12:47:29;;;;;;;4.28;3.97;;;;;;;;;;4936956;29;20313;-70
2023/08/20 12:49:56;;;;;;;3.83;3.60;;;;;;;;;;4937018;29;20220;-71
2023/08/20 12:52:23;;;;;;;3.90;3.70;;;;;;;;;;4937039;29;20204;-71
2023/08/20 12:54:52;;;;;;;3.50;3.40;;;;;;;;;;4937151;29;20211;-71
2023/08/20 12:57:19;;;;;;;3.92;3.72;;;;;;;;;;4936993;29;20208;-71
2023/08/20 12:59:46;;;;;;;3.70;3.47;;;;;;;;;;4938049;29;20215;-71
2023/08/20 13:02:13;;;;;;;3.00;2.80;;;;;;;;;;4937108;29;20227;-72
2023/08/20 13:04:41;;;;;;;2.83;2.72;;;;;;;;;;4936937;29;20265;-72
2023/08/20 13:07:08;;;;;;;2.90;2.80;;;;;;;;;;4936740;29;20271;-70
2023/08/20 13:09:36;;;;;;;2.67;2.58;;;;;;;;;;4936837;29;20211;-71
2023/08/20 13:12:05;;;;;;;2.90;2.80;;;;;;;;;;4936837;29;20210;-70
2023/08/20 13:14:32;;;;;;;3.00;2.80;;;;;;;;;;4936465;29;20223;-70
2023/08/20 13:17:00;;;;;;;3.03;2.90;;;;;;;;;;4936540;29;20227;-70
2023/08/20 13:19:27;;;;;;;2.63;2.53;;;;;;;;;;4936375;29;20224;-70
2023/08/20 13:21:54;;;;;;;2.53;2.47;;;;;;;;;;4936446;29;20208;-71
2023/08/20 13:24:21;;;;;;;2.90;2.75;;;;;;;;;;4936689;29;20208;-71
2023/08/20 13:26:49;;;;;;;2.20;2.20;;;;;;;;;;4936438;29;20210;-71
2023/08/20 13:29:17;;;;;;;2.88;2.78;;;;;;;;;;4973125;23;20578;-77
2023/08/20 13:31:44;;;;;;;2.38;2.25;;;;;;;;;;4955376;29;20206;-78
2023/08/20 13:34:12;;;;;;;2.20;2.20;;;;;;;;;;4955586;29;20219;-77
2023/08/20 13:36:39;;;;;;;2.53;2.42;;;;;;;;;;4955634;29;20208;-77
2023/08/20 13:39:06;;;;;;;2.60;2.50;;;;;;;;;;4943030;29;20224;-77
2023/08/20 13:41:34;;;;;;;2.00;1.90;;;;;;;;;;4936229;29;20204;-76
2023/08/20 13:44:01;;;;;;;2.00;2.00;;;;;;;;;;4936385;29;20218;-77
2023/08/20 13:46:29;;;;;;;2.10;2.10;;;;;;;;;;4936262;29;20215;-77
2023/08/20 13:48:56;;;;;;;1.98;1.98;;;;;;;;;;4936230;29;20228;-78
2023/08/20 13:51:24;;;;;;;2.05;2.05;;;;;;;;;;4935945;29;20671;-76
2023/08/20 13:53:51;;;;;;;2.67;2.58;;;;;;;;;;4935975;29;20759;-77
2023/08/20 13:56:18;;;;;;;2.55;2.35;;;;;;;;;;4935790;29;20671;-77
2023/08/20 13:58:45;;;;;;;2.10;2.10;;;;;;;;;;4936238;29;20220;-77
2023/08/20 14:01:13;;;;;;;1.80;1.70;;;;;;;;;;4936298;29;20212;-78
2023/08/20 14:03:41;;;;;;;2.13;2.03;;;;;;;;;;4936125;29;20571;-77